Time;durP1;ratioP1;P1;durP2;ratioP2;P2;SDS_P1;SDS_P2;PMS_P1;PMS_P2;Temp;Humidity;BMP_temperature;BMP_pressure;BME280_temperature;BME280_humidity;BME280_pressure;Samples;Min_cycle;Max_cycle;Signal;HPM_P1;HPM_P2
2022/01/07 00:01:26;;;;;;;18.60;7.18;;;3.30;99.90;;;;;;5062985;28;20123;-55
2022/01/07 00:03:52;;;;;;;15.73;7.43;;;3.30;99.90;;;;;;5069902;28;20032;-54
2022/01/07 00:06:18;;;;;;;19.48;7.47;;;3.30;99.90;;;;;;5063401;28;20090;-54
2022/01/07 00:08:44;;;;;;;16.38;6.68;;;3.30;99.90;;;;;;5065854;28;20489;-54
2022/01/07 00:11:10;;;;;;;14.77;7.00;;;3.30;99.90;;;;;;5068692;28;20067;-53
2022/01/07 00:13:36;;;;;;;16.30;7.30;;;3.30;99.90;;;;;;5065933;28;20060;-52
2022/01/07 00:16:02;;;;;;;18.83;6.47;;;3.30;99.90;;;;;;5065867;28;20053;-53
2022/01/07 00:18:28;;;;;;;14.50;6.18;;;3.30;99.90;;;;;;5068147;28;20052;-54
2022/01/07 00:20:54;;;;;;;16.38;6.45;;;3.30;99.90;;;;;;5062220;28;20040;-55
2022/01/07 00:23:21;;;;;;;12.85;5.55;;;3.40;99.90;;;;;;5066645;28;20067;-54
2022/01/07 00:25:46;;;;;;;18.92;6.72;;;3.30;99.90;;;;;;5066768;28;20044;-54
2022/01/07 00:28:12;;;;;;;15.88;6.20;;;3.40;99.90;;;;;;5065499;28;20037;-53
2022/01/07 00:30:38;;;;;;;17.63;6.72;;;3.40;99.90;;;;;;5066352;28;20044;-55
2022/01/07 00:33:04;;;;;;;15.15;6.15;;;3.30;99.90;;;;;;5059073;28;20127;-55
2022/01/07 00:35:30;;;;;;;16.23;6.60;;;3.30;99.90;;;;;;5061549;28;20079;-54
2022/01/07 00:37:56;;;;;;;13.57;5.97;;;3.30;99.90;;;;;;5065520;28;20462;-53
2022/01/07 00:40:23;;;;;;;14.85;5.75;;;3.30;99.90;;;;;;5065452;28;20140;-52
2022/01/07 00:42:50;;;;;;;13.73;5.78;;;3.30;99.90;;;;;;5059517;28;20037;-54
2022/01/07 00:45:21;;;;;;;18.17;6.25;;;3.30;99.90;;;;;;5062809;28;20101;-54
2022/01/07 00:47:47;;;;;;;12.55;5.78;;;3.30;99.90;;;;;;5057854;28;20045;-54
2022/01/07 00:50:14;;;;;;;11.82;6.15;;;3.30;99.90;;;;;;5061918;28;20501;-53
2022/01/07 00:52:40;;;;;;;14.90;5.90;;;3.30;99.90;;;;;;5053892;28;20049;-55
2022/01/07 00:55:07;;;;;;;16.30;6.35;;;3.30;99.90;;;;;;5057406;28;20115;-54
2022/01/07 00:57:32;;;;;;;14.35;5.55;;;3.30;99.90;;;;;;5058368;28;20045;-53
2022/01/07 00:59:58;;;;;;;14.63;6.60;;;3.20;99.90;;;;;;5059952;28;20494;-52
2022/01/07 01:02:24;;;;;;;12.48;6.50;;;3.20;99.90;;;;;;5064665;28;20068;-55
2022/01/07 01:04:49;;;;;;;13.65;6.28;;;3.20;99.90;;;;;;5056813;28;20483;-53
2022/01/07 01:07:15;;;;;;;16.77;6.70;;;3.20;99.90;;;;;;5062639;28;20107;-52
2022/01/07 01:09:41;;;;;;;21.70;6.55;;;3.20;99.90;;;;;;5054083;28;20036;-54
2022/01/07 01:12:07;;;;;;;13.50;6.63;;;3.20;99.90;;;;;;5064882;28;20048;-52
2022/01/07 01:14:33;;;;;;;17.92;6.25;;;3.20;99.90;;;;;;5069263;28;20053;-53
2022/01/07 01:16:59;;;;;;;14.05;7.18;;;3.10;99.90;;;;;;5065122;28;20036;-54
2022/01/07 01:19:26;;;;;;;11.63;6.22;;;3.10;99.90;;;;;;5069277;28;20408;-51
2022/01/07 01:21:52;;;;;;;16.45;6.22;;;3.10;99.90;;;;;;5069215;28;20044;-54
2022/01/07 01:24:18;;;;;;;17.52;6.10;;;3.10;99.90;;;;;;5063187;28;20418;-54
2022/01/07 01:26:43;;;;;;;15.30;5.80;;;3.10;99.90;;;;;;5062277;28;20045;-53
2022/01/07 01:29:09;;;;;;;14.13;5.32;;;3.00;99.90;;;;;;5058189;28;20063;-51
2022/01/07 01:31:36;;;;;;;15.02;6.70;;;3.00;99.90;;;;;;5054882;28;20037;-53
2022/01/07 01:34:04;;;;;;;15.23;6.55;;;3.00;99.90;;;;;;5060627;28;20040;-55
2022/01/07 01:36:29;;;;;;;19.63;7.22;;;3.00;99.90;;;;;;5059616;28;20041;-51
2022/01/07 01:38:56;;;;;;;20.55;7.00;;;3.00;99.90;;;;;;5063741;28;20101;-52
2022/01/07 01:41:21;;;;;;;16.15;6.47;;;3.00;99.90;;;;;;5063801;28;20505;-53
2022/01/07 01:43:49;;;;;;;13.15;6.63;;;3.00;99.90;;;;;;5057300;28;20029;-54
2022/01/07 01:46:19;;;;;;;14.53;6.80;;;3.00;99.90;;;;;;5058624;28;20053;-54
2022/01/07 01:48:45;;;;;;;18.63;6.32;;;2.90;99.90;;;;;;5063392;28;20048;-53
2022/01/07 01:51:12;;;;;;;14.25;6.43;;;2.90;99.90;;;;;;5066363;28;20120;-53
2022/01/07 01:53:39;;;;;;;14.60;6.82;;;2.90;99.90;;;;;;5065246;28;20067;-53
2022/01/07 01:56:04;;;;;;;12.82;6.65;;;2.90;99.90;;;;;;5061491;28;20037;-54
2022/01/07 01:58:30;;;;;;;15.25;6.50;;;2.80;99.90;;;;;;5052653;28;20483;-48
2022/01/07 02:00:56;;;;;;;15.82;7.50;;;2.80;99.90;;;;;;5064274;28;20127;-53
2022/01/07 02:03:22;;;;;;;15.18;7.55;;;2.80;99.90;;;;;;5063901;28;20059;-51
2022/01/07 02:05:47;;;;;;;15.80;7.50;;;2.80;99.90;;;;;;5068398;28;20043;-53
2022/01/07 02:08:13;;;;;;;20.33;8.02;;;2.80;99.90;;;;;;5060664;28;20040;-53
2022/01/07 02:10:39;;;;;;;15.43;7.90;;;2.70;99.90;;;;;;5064914;28;20072;-54
2022/01/07 02:13:04;;;;;;;15.68;8.05;;;2.70;99.90;;;;;;5057632;28;20060;-54
2022/01/07 02:15:30;;;;;;;15.02;7.93;;;2.70;99.90;;;;;;5065736;28;20041;-53
2022/01/07 02:17:57;;;;;;;18.95;8.23;;;2.70;99.90;;;;;;5059877;28;20400;-52
2022/01/07 02:20:26;;;;;;;14.68;8.80;;;2.70;99.90;;;;;;5062822;28;20054;-52
2022/01/07 02:22:52;;;;;;;17.70;8.77;;;2.70;99.90;;;;;;5059147;28;20052;-50
2022/01/07 02:25:20;;;;;;;17.65;8.70;;;2.70;99.90;;;;;;5060301;28;21528;-55
2022/01/07 02:27:47;;;;;;;18.27;7.75;;;2.60;99.90;;;;;;5059402;28;20447;-54
2022/01/07 02:30:19;;;;;;;20.27;9.27;;;2.60;99.90;;;;;;5069888;28;20036;-54
2022/01/07 02:32:45;;;;;;;19.95;10.27;;;2.60;99.90;;;;;;5069906;28;20486;-53
2022/01/07 02:35:12;;;;;;;19.33;10.10;;;2.60;99.90;;;;;;5064020;28;20166;-53
2022/01/07 02:37:38;;;;;;;17.88;10.55;;;2.60;99.90;;;;;;5066081;28;20079;-53
2022/01/07 02:40:06;;;;;;;21.90;10.32;;;2.60;99.90;;;;;;5066694;28;20080;-54
2022/01/07 02:42:32;;;;;;;19.48;10.48;;;2.60;99.90;;;;;;5069154;28;20211;-50
2022/01/07 02:44:58;;;;;;;18.95;9.88;;;2.60;99.90;;;;;;5062783;28;20207;-53
2022/01/07 02:47:26;;;;;;;24.60;11.05;;;2.60;99.90;;;;;;5065902;28;20090;-51
2022/01/07 02:49:52;;;;;;;23.25;11.40;;;2.50;99.90;;;;;;5068371;28;20117;-53
2022/01/07 02:52:18;;;;;;;16.35;10.65;;;2.60;99.90;;;;;;5062203;28;20048;-52
2022/01/07 02:54:43;;;;;;;18.95;11.68;;;2.50;99.90;;;;;;5064981;28;20040;-53
2022/01/07 02:57:09;;;;;;;18.63;10.95;;;2.50;99.90;;;;;;5065940;28;20200;-52
2022/01/07 02:59:34;;;;;;;21.55;11.38;;;2.50;99.90;;;;;;5065831;28;20440;-49
2022/01/07 03:02:00;;;;;;;17.50;10.05;;;2.60;99.90;;;;;;5063640;28;20492;-54
2022/01/07 03:04:27;;;;;;;19.92;11.88;;;2.50;99.90;;;;;;5061080;28;20072;-50
2022/01/07 03:06:53;;;;;;;18.40;11.60;;;2.50;99.90;;;;;;5063426;28;20546;-51
2022/01/07 03:09:19;;;;;;;16.13;11.18;;;2.60;99.90;;;;;;5070952;28;20120;-52
2022/01/07 03:11:45;;;;;;;19.92;11.55;;;2.50;99.90;;;;;;5063837;28;20116;-53
2022/01/07 03:14:10;;;;;;;15.32;10.70;;;2.50;99.90;;;;;;5058203;28;20053;-54
2022/01/07 03:16:38;;;;;;;22.23;11.88;;;2.50;99.90;;;;;;5062058;28;20041;-54
2022/01/07 03:19:04;;;;;;;20.77;11.75;;;2.50;99.90;;;;;;5063438;28;20127;-54
2022/01/07 03:21:29;;;;;;;19.42;11.85;;;2.50;99.90;;;;;;5064067;28;20176;-54
2022/01/07 03:23:55;;;;;;;18.80;10.73;;;2.50;99.90;;;;;;5061913;28;20140;-51
2022/01/07 03:26:20;;;;;;;18.90;11.13;;;2.50;99.90;;;;;;5060274;28;20116;-53
2022/01/07 03:28:47;;;;;;;14.07;10.85;;;2.50;99.90;;;;;;5065219;28;20090;-53
2022/01/07 03:31:13;;;;;;;21.05;11.73;;;2.50;99.90;;;;;;5066948;28;20032;-53
2022/01/07 03:33:39;;;;;;;17.08;11.65;;;2.50;99.90;;;;;;5061794;28;20379;-54
2022/01/07 03:36:05;;;;;;;17.73;11.75;;;2.50;99.90;;;;;;5061321;28;20086;-53
2022/01/07 03:38:31;;;;;;;22.35;12.13;;;2.50;99.90;;;;;;5063199;28;20461;-51
2022/01/07 03:40:56;;;;;;;19.02;12.30;;;2.50;99.90;;;;;;5058009;28;20041;-53
2022/01/07 03:43:22;;;;;;;20.98;12.40;;;2.50;99.90;;;;;;5065673;28;20505;-49
2022/01/07 03:45:48;;;;;;;19.77;11.63;;;2.50;99.90;;;;;;5060744;28;20475;-53
2022/01/07 03:48:14;;;;;;;19.05;11.52;;;2.50;99.90;;;;;;5061868;28;20050;-54
2022/01/07 03:50:39;;;;;;;19.25;12.15;;;2.50;99.90;;;;;;5060805;28;20033;-49
2022/01/07 03:53:05;;;;;;;19.08;11.32;;;2.50;99.90;;;;;;5064676;28;20450;-54
2022/01/07 03:55:31;;;;;;;16.33;11.05;;;2.60;99.90;;;;;;5065669;28;20070;-49
2022/01/07 03:57:57;;;;;;;15.40;10.10;;;2.60;99.90;;;;;;5064948;28;20655;-48
2022/01/07 04:00:34;;;;;;;17.30;11.07;;;2.60;99.90;;;;;;5068719;28;20045;-51
2022/01/07 04:03:05;;;;;;;20.70;11.88;;;2.60;99.90;;;;;;5064526;28;20072;-51
2022/01/07 04:05:31;;;;;;;20.75;12.00;;;2.60;99.90;;;;;;5063266;28;20483;-52
2022/01/07 04:07:56;;;;;;;14.05;10.73;;;2.60;99.90;;;;;;5062102;28;20066;-54
2022/01/07 04:10:22;;;;;;;21.58;11.05;;;2.70;99.90;;;;;;5066444;28;20497;-50
2022/01/07 04:12:48;;;;;;;16.98;11.43;;;2.70;99.90;;;;;;5062930;28;20048;-54
2022/01/07 04:15:14;;;;;;;22.80;11.82;;;2.70;99.90;;;;;;5060826;28;20032;-50
2022/01/07 04:17:42;;;;;;;16.48;11.30;;;2.70;99.90;;;;;;5060854;28;20120;-54
2022/01/07 04:20:09;;;;;;;17.25;10.68;;;2.70;99.90;;;;;;5060608;28;20037;-52
2022/01/07 04:22:35;;;;;;;18.23;10.85;;;2.70;99.90;;;;;;5061506;28;20045;-50
2022/01/07 04:25:04;;;;;;;17.23;10.77;;;2.70;99.90;;;;;;5062885;28;20383;-53
2022/01/07 04:27:31;;;;;;;18.58;10.63;;;2.70;99.90;;;;;;5065457;28;20515;-52
2022/01/07 04:29:57;;;;;;;17.95;10.88;;;2.70;99.90;;;;;;5064243;28;20045;-53
2022/01/07 04:32:23;;;;;;;16.33;11.00;;;2.70;99.90;;;;;;5058837;28;20048;-54
2022/01/07 04:34:49;;;;;;;18.52;10.55;;;2.70;99.90;;;;;;5060473;28;20074;-55
2022/01/07 04:37:15;;;;;;;17.52;11.30;;;2.80;99.90;;;;;;5066001;28;20121;-53
2022/01/07 04:39:41;;;;;;;21.50;10.75;;;2.80;99.90;;;;;;5063411;28;20290;-53
2022/01/07 04:42:07;;;;;;;15.60;11.07;;;2.80;99.90;;;;;;5060241;28;20695;-54
2022/01/07 04:44:35;;;;;;;18.38;11.20;;;2.80;99.90;;;;;;5061549;28;20370;-52
2022/01/07 04:47:01;;;;;;;16.33;10.70;;;2.80;99.90;;;;;;5061764;28;20043;-53
2022/01/07 04:49:26;;;;;;;15.73;9.90;;;2.80;99.90;;;;;;5060646;28;20040;-53
2022/01/07 04:51:52;;;;;;;15.75;10.40;;;2.80;99.90;;;;;;5066421;28;20386;-50
2022/01/07 04:54:17;;;;;;;17.13;10.45;;;2.70;99.90;;;;;;5064606;28;20040;-54
2022/01/07 04:56:43;;;;;;;14.20;9.95;;;2.80;99.90;;;;;;5066289;28;20071;-54
2022/01/07 04:59:09;;;;;;;15.13;9.38;;;2.70;99.90;;;;;;5059029;28;20490;-53
2022/01/07 05:01:34;;;;;;;12.75;9.80;;;2.80;99.90;;;;;;5059993;28;20056;-52
2022/01/07 05:04:00;;;;;;;14.23;9.73;;;2.70;99.90;;;;;;5068343;28;20044;-52
2022/01/07 05:06:44;;;;;;;13.63;8.80;;;2.70;99.90;;;;;;5061100;28;20045;-52
2022/01/07 05:09:10;;;;;;;14.63;9.02;;;2.70;99.90;;;;;;5060347;28;20388;-53
2022/01/07 05:11:36;;;;;;;10.90;9.38;;;2.70;99.90;;;;;;5065963;28;20093;-51
2022/01/07 05:14:01;;;;;;;16.13;9.52;;;2.70;99.90;;;;;;5060980;28;20057;-53
2022/01/07 05:16:28;;;;;;;14.27;8.88;;;2.70;99.90;;;;;;5059793;28;20050;-51
2022/01/07 05:18:54;;;;;;;15.52;9.02;;;2.70;99.90;;;;;;5060022;28;20116;-51
2022/01/07 05:21:20;;;;;;;14.02;9.63;;;2.70;99.90;;;;;;5063466;28;20558;-52
2022/01/07 05:23:46;;;;;;;13.48;9.35;;;2.70;99.90;;;;;;5063914;28;20036;-48
2022/01/07 05:26:11;;;;;;;12.82;8.77;;;2.60;99.90;;;;;;5056646;28;20049;-50
2022/01/07 05:28:37;;;;;;;14.50;9.80;;;2.70;99.90;;;;;;5060954;28;20198;-50
2022/01/07 05:31:03;;;;;;;12.52;8.95;;;2.70;99.90;;;;;;5058863;28;20064;-48
2022/01/07 05:33:28;;;;;;;13.23;10.02;;;2.70;99.90;;;;;;5056302;28;20044;-53
2022/01/07 05:35:54;;;;;;;13.25;9.15;;;2.70;99.90;;;;;;5061107;28;20147;-54
2022/01/07 05:38:20;;;;;;;12.40;8.75;;;2.60;99.90;;;;;;5056376;28;20044;-52
2022/01/07 05:40:45;;;;;;;11.77;8.70;;;2.70;99.90;;;;;;5058543;28;20041;-54
2022/01/07 05:43:11;;;;;;;15.30;9.32;;;2.70;99.90;;;;;;5057943;28;20486;-54
2022/01/07 05:45:36;;;;;;;15.40;10.07;;;2.70;99.90;;;;;;5061728;28;20559;-52
2022/01/07 05:48:03;;;;;;;10.52;8.20;;;2.70;99.90;;;;;;5062315;28;20508;-53
2022/01/07 05:50:29;;;;;;;14.65;8.52;;;2.70;99.90;;;;;;5064041;28;20045;-53
2022/01/07 05:52:54;;;;;;;12.20;9.20;;;2.70;99.90;;;;;;5066088;28;20441;-53
2022/01/07 05:55:20;;;;;;;12.63;8.70;;;2.70;99.90;;;;;;5061227;28;20515;-52
2022/01/07 05:57:45;;;;;;;12.55;8.63;;;2.70;99.90;;;;;;5058044;28;20049;-52
2022/01/07 06:00:12;;;;;;;13.10;8.80;;;2.70;99.90;;;;;;5057926;28;20045;-50
2022/01/07 06:02:38;;;;;;;11.82;8.27;;;2.70;99.90;;;;;;5054552;28;20091;-54
2022/01/07 06:05:04;;;;;;;13.07;8.40;;;2.70;99.90;;;;;;5064151;28;20489;-53
2022/01/07 06:07:29;;;;;;;11.63;8.20;;;2.70;99.90;;;;;;5063309;28;20056;-51
2022/01/07 06:09:55;;;;;;;11.57;8.55;;;2.80;99.90;;;;;;5060504;28;20446;-52
2022/01/07 06:12:20;;;;;;;13.85;8.23;;;2.80;99.90;;;;;;5066783;28;20106;-48
2022/01/07 06:14:46;;;;;;;13.18;7.78;;;2.80;99.90;;;;;;5062174;28;20053;-48
2022/01/07 06:17:12;;;;;;;11.75;7.93;;;2.80;99.90;;;;;;5063785;28;20041;-51
2022/01/07 06:19:38;;;;;;;11.35;8.27;;;2.80;99.90;;;;;;5066635;28;20056;-52
2022/01/07 06:22:04;;;;;;;9.35;7.30;;;2.80;99.90;;;;;;5065446;28;20048;-51
2022/01/07 06:24:29;;;;;;;9.63;7.32;;;2.80;99.90;;;;;;5057822;28;20091;-51
2022/01/07 06:26:55;;;;;;;15.23;8.48;;;2.80;99.90;;;;;;5067146;28;20408;-51
2022/01/07 06:29:21;;;;;;;9.70;8.13;;;2.80;99.90;;;;;;5065751;28;20040;-50
2022/01/07 06:31:47;;;;;;;13.13;8.32;;;2.80;99.90;;;;;;5070187;28;20032;-50
2022/01/07 06:34:12;;;;;;;13.80;8.18;;;2.90;99.90;;;;;;5062323;28;20055;-53
2022/01/07 06:36:38;;;;;;;11.88;7.45;;;2.90;99.90;;;;;;5063311;28;20051;-54
2022/01/07 06:39:04;;;;;;;10.70;7.95;;;2.90;99.90;;;;;;5068697;28;20048;-52
2022/01/07 06:41:30;;;;;;;10.32;7.50;;;2.90;99.90;;;;;;5066398;28;20048;-54
2022/01/07 06:43:55;;;;;;;10.40;7.85;;;2.90;99.90;;;;;;5066180;28;20557;-53
2022/01/07 06:46:21;;;;;;;11.77;7.68;;;2.90;99.90;;;;;;5069529;28;20040;-52
2022/01/07 06:48:47;;;;;;;11.45;8.02;;;2.90;99.90;;;;;;5069649;28;20029;-50
2022/01/07 06:51:12;;;;;;;10.07;7.70;;;2.90;99.90;;;;;;5063614;28;20221;-52
2022/01/07 06:53:38;;;;;;;10.80;7.82;;;2.90;99.90;;;;;;5063674;28;20078;-53
2022/01/07 06:56:04;;;;;;;9.45;8.00;;;3.00;99.90;;;;;;5059117;28;20041;-53
2022/01/07 06:58:29;;;;;;;11.00;8.57;;;2.90;99.90;;;;;;5057673;28;20052;-52
2022/01/07 07:00:55;;;;;;;10.88;8.05;;;2.90;99.90;;;;;;5066307;28;20044;-54
2022/01/07 07:03:21;;;;;;;9.70;8.57;;;2.90;99.90;;;;;;5062360;28;20553;-52
2022/01/07 07:05:47;;;;;;;11.38;8.35;;;2.90;99.90;;;;;;5062655;28;20060;-55
2022/01/07 07:08:13;;;;;;;10.52;8.80;;;2.90;99.90;;;;;;5065727;28;20041;-53
2022/01/07 07:10:38;;;;;;;9.52;8.10;;;3.00;99.90;;;;;;5058972;28;20470;-53
2022/01/07 07:13:04;;;;;;;9.73;8.63;;;3.00;99.90;;;;;;5064893;28;20145;-54
2022/01/07 07:15:30;;;;;;;12.50;9.05;;;2.90;99.90;;;;;;5060110;28;20055;-54
2022/01/07 07:17:55;;;;;;;11.35;9.07;;;3.00;99.90;;;;;;5061652;28;20044;-53
2022/01/07 07:20:21;;;;;;;11.63;9.43;;;3.00;99.90;;;;;;5063637;28;20116;-54
2022/01/07 07:22:46;;;;;;;12.30;9.95;;;3.00;99.90;;;;;;5069863;28;20174;-53
2022/01/07 07:25:12;;;;;;;11.80;9.52;;;3.00;99.90;;;;;;5069658;28;20033;-53
2022/01/07 07:27:38;;;;;;;12.35;10.57;;;3.00;99.90;;;;;;5061418;28;20402;-55
2022/01/07 07:30:07;;;;;;;15.20;10.82;;;3.00;99.90;;;;;;5057957;28;20045;-54
2022/01/07 07:32:33;;;;;;;16.35;11.02;;;3.00;99.90;;;;;;5059881;28;20055;-52
2022/01/07 07:36:26;;;;;;;12.18;10.90;;;3.00;99.90;;;;;;5063157;28;20123;-51
2022/01/07 07:37:49;;;;;;;14.23;11.20;;;3.10;99.90;;;;;;5064884;28;20051;-53
2022/01/07 07:40:14;;;;;;;14.32;11.88;;;3.10;99.90;;;;;;5064068;28;20062;-52
2022/01/07 07:42:41;;;;;;;16.08;11.60;;;3.10;99.90;;;;;;5063864;28;20040;-55
2022/01/07 07:45:07;;;;;;;20.30;13.02;;;3.10;99.90;;;;;;5059236;28;20128;-54
2022/01/07 07:47:35;;;;;;;17.48;12.60;;;3.10;99.90;;;;;;5063327;28;20083;-54
2022/01/07 07:50:00;;;;;;;14.97;11.83;;;3.10;99.90;;;;;;5064660;28;20040;-54
2022/01/07 07:52:26;;;;;;;18.65;12.73;;;3.20;99.90;;;;;;5072775;28;20082;-54
2022/01/07 07:54:52;;;;;;;15.10;13.48;;;3.20;99.90;;;;;;5066830;28;20041;-55
2022/01/07 07:57:19;;;;;;;17.15;13.13;;;3.20;99.90;;;;;;5063039;28;20380;-52
2022/01/07 07:59:45;;;;;;;20.85;13.85;;;3.30;99.90;;;;;;5065045;28;20159;-52
2022/01/07 08:02:11;;;;;;;21.05;15.00;;;3.30;99.90;;;;;;5056041;28;20503;-54
2022/01/07 08:04:38;;;;;;;21.83;15.27;;;3.30;99.90;;;;;;5058865;28;20049;-52
2022/01/07 08:07:04;;;;;;;18.52;15.43;;;3.30;99.90;;;;;;5067678;28;20044;-53
2022/01/07 08:09:34;;;;;;;23.17;15.48;;;3.30;99.90;;;;;;5067044;28;20431;-53
2022/01/07 08:12:15;;;;;;;23.48;16.08;;;3.40;99.90;;;;;;5068526;28;20116;-51
2022/01/07 08:17:25;;;;;;;20.60;15.88;;;3.40;99.90;;;;;;5059970;28;20137;-52
2022/01/07 08:19:51;;;;;;;20.42;15.80;;;3.50;99.90;;;;;;5061781;28;20044;-55
2022/01/07 08:22:17;;;;;;;25.25;16.58;;;3.50;99.90;;;;;;5064140;28;20124;-55
2022/01/07 08:24:42;;;;;;;22.52;17.30;;;3.50;99.90;;;;;;5064386;28;20028;-51
2022/01/07 08:27:08;;;;;;;23.13;16.88;;;3.60;99.90;;;;;;5061548;28;20040;-53
2022/01/07 08:29:36;;;;;;;25.85;17.30;;;;;;;;;;5062833;28;20044;-54
2022/01/07 08:34:53;;;;;;;23.98;19.38;;;3.90;99.90;;;;;;5059813;28;20114;-50
2022/01/07 08:37:24;;;;;;;29.48;18.58;;;3.80;99.90;;;;;;5055916;28;20483;-52
2022/01/07 08:39:51;;;;;;;25.13;18.27;;;3.80;99.90;;;;;;5057759;28;20044;-52
2022/01/07 08:42:18;;;;;;;27.35;19.02;;;3.80;99.90;;;;;;5057070;28;20375;-54
2022/01/07 08:44:43;;;;;;;31.20;20.88;;;3.90;99.90;;;;;;5055871;28;20494;-52
2022/01/07 08:47:09;;;;;;;28.77;20.58;;;3.90;99.90;;;;;;5053797;28;20047;-54
2022/01/07 08:49:34;;;;;;;29.83;20.83;;;4.20;99.90;;;;;;5058554;28;20041;-51
2022/01/07 08:52:00;;;;;;;24.58;20.00;;;4.00;99.90;;;;;;5057394;28;20383;-51
2022/01/07 08:54:25;;;;;;;28.58;19.35;;;4.00;99.90;;;;;;5059981;28;20131;-52
2022/01/07 08:56:51;;;;;;;25.63;20.27;;;4.10;99.90;;;;;;5060134;28;20134;-56
2022/01/07 08:59:16;;;;;;;26.95;19.73;;;4.10;99.90;;;;;;5058123;28;20138;-51
2022/01/07 09:01:42;;;;;;;30.17;21.30;;;4.10;99.90;;;;;;5056048;28;20762;-52
2022/01/07 09:04:08;;;;;;;27.48;20.83;;;4.20;99.90;;;;;;5056997;28;20120;-54
2022/01/07 09:06:34;;;;;;;27.65;20.00;;;4.20;99.90;;;;;;5052461;28;20049;-51
2022/01/07 09:08:59;;;;;;;28.63;21.08;;;4.20;99.90;;;;;;5053099;28;20045;-49
2022/01/07 09:11:25;;;;;;;32.45;19.33;;;4.20;99.90;;;;;;5052484;28;20079;-51
2022/01/07 09:13:52;;;;;;;23.42;19.02;;;4.30;99.90;;;;;;5056450;28;20249;-50
2022/01/07 09:16:19;;;;;;;31.02;21.50;;;4.30;99.90;;;;;;5071771;28;20049;-53
2022/01/07 09:18:45;;;;;;;25.90;20.67;;;4.30;99.90;;;;;;5072387;28;20044;-53
2022/01/07 09:21:10;;;;;;;28.92;20.83;;;4.40;99.90;;;;;;5072199;28;20811;-54
2022/01/07 09:23:40;;;;;;;30.83;20.92;;;4.40;99.90;;;;;;5071599;28;20067;-54
2022/01/07 09:26:06;;;;;;;25.45;20.40;;;4.50;99.90;;;;;;5069870;28;20045;-53
2022/01/07 09:28:31;;;;;;;23.92;18.88;;;4.50;99.90;;;;;;5070484;28;20439;-54
2022/01/07 09:30:57;;;;;;;29.80;20.50;;;4.50;99.90;;;;;;5071095;28;20044;-53
2022/01/07 09:33:22;;;;;;;26.20;19.88;;;4.50;99.90;;;;;;5072024;28;20045;-54
2022/01/07 09:35:50;;;;;;;27.30;19.45;;;4.50;99.90;;;;;;5072032;28;20066;-54
2022/01/07 09:38:16;;;;;;;;;;;4.50;99.90;;;;;;5071740;28;20044;-54
2022/01/07 09:40:41;;;;;;;24.13;19.15;;;4.40;99.90;;;;;;5071862;28;19927;-53
2022/01/07 09:43:08;;;;;;;28.67;19.25;;;4.50;99.90;;;;;;5070316;28;20524;-52
2022/01/07 09:45:36;;;;;;;29.15;21.05;;;4.50;99.90;;;;;;5069677;28;20467;-54
2022/01/07 09:48:02;;;;;;;25.90;17.90;;;4.50;99.90;;;;;;5067413;28;20122;-53
2022/01/07 09:50:29;;;;;;;24.33;19.52;;;4.40;99.90;;;;;;5062252;28;20513;-53
2022/01/07 09:52:55;;;;;;;31.02;18.92;;;4.50;99.90;;;;;;5071148;28;20055;-53
2022/01/07 09:55:21;;;;;;;32.35;20.33;;;4.50;99.90;;;;;;5061495;28;20053;-53
2022/01/07 09:57:47;;;;;;;27.65;19.30;;;4.60;99.90;;;;;;5061581;28;20047;-53
2022/01/07 10:00:13;;;;;;;24.95;19.00;;;4.60;99.90;;;;;;5071620;28;20483;-54
2022/01/07 10:02:58;;;;;;;25.80;19.00;;;4.60;99.90;;;;;;5069402;28;20041;-53
2022/01/07 10:05:24;;;;;;;24.70;18.73;;;4.70;99.90;;;;;;5071559;28;20116;-53
2022/01/07 10:07:49;;;;;;;27.25;19.48;;;4.70;99.90;;;;;;5071114;28;20182;-54
2022/01/07 10:10:19;;;;;;;23.50;18.10;;;4.70;99.90;;;;;;5070830;28;20048;-54
2022/01/07 10:13:06;;;;;;;30.45;18.38;;;4.80;99.90;;;;;;5071597;28;20132;-54
2022/01/07 10:15:36;;;;;;;25.37;18.53;;;4.80;99.90;;;;;;5070660;28;20116;-52
2022/01/07 10:18:08;;;;;;;19.33;16.80;;;4.90;99.90;;;;;;5071851;28;20428;-56
2022/01/07 10:20:36;;;;;;;23.58;18.60;;;4.90;99.90;;;;;;5071791;28;20048;-53
2022/01/07 10:23:13;;;;;;;27.27;19.25;;;4.90;99.90;;;;;;5068753;28;20077;-53
2022/01/07 10:25:41;;;;;;;26.58;17.67;;;5.00;99.90;;;;;;5055181;28;20041;-53
2022/01/07 10:28:13;;;;;;;21.63;18.38;;;5.00;99.90;;;;;;5058943;28;20063;-55
2022/01/07 10:30:42;;;;;;;27.60;19.35;;;5.10;99.90;;;;;;5071521;28;20496;-53
2022/01/07 10:33:28;;;;;;;23.67;18.83;;;5.10;99.90;;;;;;5070982;28;20045;-52
2022/01/07 10:35:55;;;;;;;26.50;18.02;;;5.20;99.90;;;;;;5071877;28;20127;-53
2022/01/07 10:38:26;;;;;;;28.38;19.52;;;5.20;99.90;;;;;;5071058;28;20071;-54
2022/01/07 10:40:53;;;;;;;26.38;19.25;;;5.20;99.90;;;;;;5070746;28;20040;-52
2022/01/07 10:43:27;;;;;;;31.00;20.00;;;5.20;99.90;;;;;;5071270;28;20044;-54
2022/01/07 10:45:57;;;;;;;28.65;19.55;;;5.30;99.90;;;;;;5071619;28;20067;-50
2022/01/07 10:48:35;;;;;;;27.95;20.10;;;5.30;99.90;;;;;;5071639;28;20049;-52
2022/01/07 10:51:08;;;;;;;29.73;20.10;;;5.40;99.90;;;;;;5071820;28;20051;-50
2022/01/07 10:53:35;;;;;;;28.42;19.40;;;5.60;99.90;;;;;;5074522;28;20522;-54
2022/01/07 10:56:17;;;;;;;30.05;20.13;;;5.60;99.90;;;;;;5066078;28;20453;-53
2022/01/07 10:58:43;;;;;;;25.35;19.27;;;5.60;99.90;;;;;;5055766;28;20103;-53
2022/01/07 11:01:20;;;;;;;28.38;19.05;;;5.60;99.90;;;;;;5064020;28;20033;-54
2022/01/07 11:03:59;;;;;;;24.15;17.83;;;5.50;99.90;;;;;;5072313;28;20090;-54
2022/01/07 11:06:27;;;;;;;25.85;18.48;;;5.50;99.90;;;;;;5069929;28;20486;-53
2022/01/07 11:08:54;;;;;;;22.83;16.85;;;5.40;99.90;;;;;;5065818;28;20041;-54
2022/01/07 11:11:22;;;;;;;27.20;17.83;;;5.50;99.90;;;;;;5074318;28;20102;-54
2022/01/07 11:13:47;;;;;;;31.38;19.45;;;5.60;99.90;;;;;;5055090;28;20053;-52
2022/01/07 11:16:13;;;;;;;25.23;19.08;;;5.70;99.90;;;;;;5071466;28;20051;-53
2022/01/07 11:18:41;;;;;;;22.40;16.75;;;6.00;99.90;;;;;;5074340;28;20375;-55
2022/01/07 11:21:08;;;;;;;22.15;17.45;;;6.00;99.90;;;;;;5072441;28;20061;-54
2022/01/07 11:23:38;;;;;;;20.23;15.32;;;6.10;99.90;;;;;;5073732;28;20135;-53
2022/01/07 11:26:07;;;;;;;18.83;14.55;;;6.10;99.90;;;;;;5073725;28;20056;-54
2022/01/07 11:28:32;;;;;;;;;;;6.20;99.90;;;;;;5065675;28;20525;-54
2022/01/07 11:31:13;;;;;;;19.42;15.00;;;6.20;99.90;;;;;;5067985;28;19920;-55
2022/01/07 11:33:39;;;;;;;27.55;16.15;;;6.30;99.90;;;;;;5063751;28;20227;-53
2022/01/07 11:36:10;;;;;;;23.38;16.05;;;6.30;99.90;;;;;;5069084;28;20420;-55
2022/01/07 11:38:44;;;;;;;19.02;13.15;;;6.30;99.90;;;;;;5071858;28;20123;-54
2022/01/07 11:41:34;;;;;;;18.75;13.40;;;6.20;99.90;;;;;;5063356;28;20055;-55
2022/01/07 11:44:13;;;;;;;19.20;12.63;;;6.10;99.90;;;;;;5073342;28;20048;-54
2022/01/07 11:46:39;;;;;;;17.60;12.15;;;5.90;99.90;;;;;;5064809;28;20404;-55
2022/01/07 11:49:05;;;;;;;13.48;8.80;;;5.80;99.90;;;;;;5056873;28;20044;-52
2022/01/07 11:51:40;;;;;;;9.85;8.45;;;5.50;99.90;;;;;;5067170;28;20403;-52
2022/01/07 11:54:09;;;;;;;9.00;7.20;;;5.20;99.90;;;;;;5069409;28;20044;-54
2022/01/07 11:56:36;;;;;;;10.02;5.45;;;5.00;99.90;;;;;;5062378;28;20444;-53
2022/01/07 11:59:14;;;;;;;8.43;5.43;;;4.80;99.90;;;;;;5057601;28;20384;-52
2022/01/07 12:01:42;;;;;;;9.90;5.28;;;4.60;99.90;;;;;;5061050;28;20036;-53
2022/01/07 12:04:13;;;;;;;7.00;3.47;;;4.60;99.90;;;;;;5053083;28;20036;-53
2022/01/07 12:06:39;;;;;;;11.68;3.20;;;4.50;99.90;;;;;;5057186;28;20036;-53
2022/01/07 12:09:09;;;;;;;5.70;1.92;;;4.40;99.90;;;;;;5071072;28;20457;-53
2022/01/07 12:11:39;;;;;;;7.00;1.98;;;4.40;99.90;;;;;;5066772;28;20436;-52
2022/01/07 12:14:10;;;;;;;6.60;1.63;;;4.30;99.90;;;;;;5051287;28;20126;-53
2022/01/07 12:16:37;;;;;;;10.23;1.70;;;;;;;;;;5054954;28;20045;-50
2022/01/07 12:19:23;;;;;;;7.20;1.50;;;4.20;99.90;;;;;;5053947;28;20086;-52
2022/01/07 12:21:59;;;;;;;6.05;1.30;;;4.10;99.90;;;;;;5066157;28;20036;-52
2022/01/07 12:24:27;;;;;;;4.88;1.42;;;4.10;99.90;;;;;;5053468;28;20044;-52
2022/01/07 12:27:08;;;;;;;7.53;1.55;;;4.00;99.90;;;;;;5070267;28;20045;-52
2022/01/07 12:29:36;;;;;;;5.97;1.20;;;4.00;99.90;;;;;;5058246;28;20037;-52
2022/01/07 12:32:04;;;;;;;5.97;1.40;;;4.00;99.90;;;;;;5054569;28;20520;-49
2022/01/07 12:34:40;;;;;;;;;;;3.90;99.90;;;;;;5059098;28;20140;-51
2022/01/07 12:37:08;;;;;;;9.88;1.80;;;3.90;99.90;;;;;;5066219;28;20319;-53
2022/01/07 12:39:41;;;;;;;7.45;1.63;;;3.90;99.90;;;;;;5059841;28;20174;-50
2022/01/07 12:42:09;;;;;;;5.38;1.20;;;3.90;99.90;;;;;;5072026;28;20470;-53
2022/01/07 12:44:37;;;;;;;9.07;1.40;;;3.90;99.90;;;;;;5067912;28;20137;-50
2022/01/07 12:47:04;;;;;;;7.43;1.42;;;3.80;99.90;;;;;;5056863;28;20485;-49
2022/01/07 12:49:34;;;;;;;6.30;1.75;;;3.80;99.90;;;;;;5066795;28;20045;-51